sensor_id;sensor_type;location;lat;lon;timestamp;pressure;altitude;pressure_sealevel;temperature;humidity
18821;BME280;9539;59.332;18.034;2023-02-23T00:00:28;101378.00;;;6.52;56.83
18821;BME280;9539;59.332;18.034;2023-02-23T00:02:52;101384.13;;;6.27;58.58
18821;BME280;9539;59.332;18.034;2023-02-23T00:05:16;101383.31;;;6.50;57.20
18821;BME280;9539;59.332;18.034;2023-02-23T00:07:38;101373.34;;;7.56;53.65
18821;BME280;9539;59.332;18.034;2023-02-23T00:10:04;101372.22;;;6.67;55.89
18821;BME280;9539;59.332;18.034;2023-02-23T00:12:30;101377.13;;;6.77;56.72
18821;BME280;9539;59.332;18.034;2023-02-23T00:14:55;101368.88;;;7.58;53.11
18821;BME280;9539;59.332;18.034;2023-02-23T00:17:19;101370.94;;;8.59;51.01
18821;BME280;9539;59.332;18.034;2023-02-23T00:19:46;101361.44;;;6.98;54.36
18821;BME280;9539;59.332;18.034;2023-02-23T00:22:08;101359.41;;;7.74;52.97
18821;BME280;9539;59.332;18.034;2023-02-23T00:24:31;101366.59;;;7.47;53.70
18821;BME280;9539;59.332;18.034;2023-02-23T00:26:56;101360.31;;;7.51;53.56
18821;BME280;9539;59.332;18.034;2023-02-23T00:29:19;101344.19;;;7.36;54.02
18821;BME280;9539;59.332;18.034;2023-02-23T00:31:44;101343.38;;;6.36;55.81
18821;BME280;9539;59.332;18.034;2023-02-23T00:34:06;101338.50;;;6.75;56.26
18821;BME280;9539;59.332;18.034;2023-02-23T00:36:29;101339.31;;;6.01;58.98
18821;BME280;9539;59.332;18.034;2023-02-23T00:38:52;101330.97;;;6.89;55.90
18821;BME280;9539;59.332;18.034;2023-02-23T00:41:14;101327.34;;;8.25;52.53
18821;BME280;9539;59.332;18.034;2023-02-23T00:43:40;101317.84;;;7.11;56.15
18821;BME280;9539;59.332;18.034;2023-02-23T00:46:07;101327.28;;;7.85;54.04
18821;BME280;9539;59.332;18.034;2023-02-23T00:48:30;101323.25;;;7.31;55.54
18821;BME280;9539;59.332;18.034;2023-02-23T00:50:57;101312.75;;;7.06;54.85
18821;BME280;9539;59.332;18.034;2023-02-23T00:53:20;101318.19;;;6.54;57.19
18821;BME280;9539;59.332;18.034;2023-02-23T00:55:42;101310.81;;;6.63;56.24
18821;BME280;9539;59.332;18.034;2023-02-23T00:58:04;101309.75;;;6.92;56.34
18821;BME280;9539;59.332;18.034;2023-02-23T01:00:29;101305.16;;;7.66;55.07
18821;BME280;9539;59.332;18.034;2023-02-23T01:02:51;101313.28;;;7.83;53.43
18821;BME280;9539;59.332;18.034;2023-02-23T01:05:15;101312.72;;;8.17;52.46
18821;BME280;9539;59.332;18.034;2023-02-23T01:07:37;101305.25;;;7.64;54.30
18821;BME280;9539;59.332;18.034;2023-02-23T01:09:59;101302.63;;;8.48;51.56
18821;BME280;9539;59.332;18.034;2023-02-23T01:12:21;101292.13;;;8.25;51.60
18821;BME280;9539;59.332;18.034;2023-02-23T01:14:43;101298.19;;;7.85;52.55
18821;BME280;9539;59.332;18.034;2023-02-23T01:17:07;101294.06;;;7.34;54.09
18821;BME280;9539;59.332;18.034;2023-02-23T01:19:29;101279.13;;;7.98;53.37
18821;BME280;9539;59.332;18.034;2023-02-23T01:21:55;101283.31;;;7.84;53.42
18821;BME280;9539;59.332;18.034;2023-02-23T01:24:17;101284.34;;;7.58;53.86
18821;BME280;9539;59.332;18.034;2023-02-23T01:26:41;101283.78;;;8.14;52.79
18821;BME280;9539;59.332;18.034;2023-02-23T01:29:05;101277.28;;;8.22;52.26
18821;BME280;9539;59.332;18.034;2023-02-23T01:31:29;101278.50;;;8.14;53.16
18821;BME280;9539;59.332;18.034;2023-02-23T01:33:52;101268.41;;;7.81;52.70
18821;BME280;9539;59.332;18.034;2023-02-23T01:36:14;101273.25;;;7.92;55.69
18821;BME280;9539;59.332;18.034;2023-02-23T01:38:39;101273.13;;;7.95;56.26
18821;BME280;9539;59.332;18.034;2023-02-23T01:41:02;101271.19;;;7.56;59.22
18821;BME280;9539;59.332;18.034;2023-02-23T01:43:26;101258.13;;;8.37;56.80
18821;BME280;9539;59.332;18.034;2023-02-23T01:45:48;101258.78;;;8.81;55.66
18821;BME280;9539;59.332;18.034;2023-02-23T01:48:12;101259.53;;;8.24;57.02
18821;BME280;9539;59.332;18.034;2023-02-23T01:50:41;101254.16;;;8.48;57.94
18821;BME280;9539;59.332;18.034;2023-02-23T01:53:04;101248.06;;;8.46;58.37
18821;BME280;9539;59.332;18.034;2023-02-23T01:55:28;101242.25;;;8.76;57.67
18821;BME280;9539;59.332;18.034;2023-02-23T01:57:54;101245.28;;;8.28;58.01
18821;BME280;9539;59.332;18.034;2023-02-23T02:00:17;101240.00;;;9.25;56.20
18821;BME280;9539;59.332;18.034;2023-02-23T02:02:40;101235.31;;;8.55;58.97
18821;BME280;9539;59.332;18.034;2023-02-23T02:05:03;101233.97;;;8.04;63.36
18821;BME280;9539;59.332;18.034;2023-02-23T02:07:29;101232.75;;;7.71;66.09
18821;BME280;9539;59.332;18.034;2023-02-23T02:09:55;101216.59;;;7.99;63.86
18821;BME280;9539;59.332;18.034;2023-02-23T02:12:34;101216.50;;;7.38;67.89
18821;BME280;9539;59.332;18.034;2023-02-23T02:14:57;101222.50;;;7.63;71.06
18821;BME280;9539;59.332;18.034;2023-02-23T02:17:29;101212.06;;;7.81;72.36
18821;BME280;9539;59.332;18.034;2023-02-23T02:20:27;101204.63;;;8.11;71.69
18821;BME280;9539;59.332;18.034;2023-02-23T02:25:57;101197.97;;;8.02;76.46
18821;BME280;9539;59.332;18.034;2023-02-23T02:28:44;101191.50;;;8.87;69.82
18821;BME280;9539;59.332;18.034;2023-02-23T02:34:41;101193.22;;;8.10;71.93
18821;BME280;9539;59.332;18.034;2023-02-23T02:37:29;101180.00;;;8.30;76.05
18821;BME280;9539;59.332;18.034;2023-02-23T02:40:00;101183.25;;;8.56;73.85
18821;BME280;9539;59.332;18.034;2023-02-23T02:42:37;101186.97;;;8.11;78.32
18821;BME280;9539;59.332;18.034;2023-02-23T02:45:12;101179.41;;;8.03;73.28
18821;BME280;9539;59.332;18.034;2023-02-23T02:47:40;101175.53;;;8.51;74.66
18821;BME280;9539;59.332;18.034;2023-02-23T02:50:05;101159.63;;;8.12;76.99
18821;BME280;9539;59.332;18.034;2023-02-23T02:52:34;101165.44;;;6.94;89.35
18821;BME280;9539;59.332;18.034;2023-02-23T02:55:04;101163.31;;;8.28;82.53
18821;BME280;9539;59.332;18.034;2023-02-23T02:57:31;101147.25;;;9.08;74.11
18821;BME280;9539;59.332;18.034;2023-02-23T02:59:56;101150.38;;;8.99;74.80
18821;BME280;9539;59.332;18.034;2023-02-23T03:02:37;101154.72;;;7.20;89.04
18821;BME280;9539;59.332;18.034;2023-02-23T03:05:18;101149.56;;;7.59;87.30
18821;BME280;9539;59.332;18.034;2023-02-23T03:08:08;101156.94;;;7.09;93.46
18821;BME280;9539;59.332;18.034;2023-02-23T03:10:55;101134.88;;;7.94;91.09
18821;BME280;9539;59.332;18.034;2023-02-23T03:13:47;101139.06;;;8.76;82.25
18821;BME280;9539;59.332;18.034;2023-02-23T03:16:35;101136.88;;;8.86;79.07
18821;BME280;9539;59.332;18.034;2023-02-23T03:19:19;101133.31;;;8.29;82.54
18821;BME280;9539;59.332;18.034;2023-02-23T03:22:06;101127.50;;;8.41;80.48
18821;BME280;9539;59.332;18.034;2023-02-23T03:24:54;101131.59;;;8.49;81.96
18821;BME280;9539;59.332;18.034;2023-02-23T03:27:43;101119.97;;;8.12;83.31
18821;BME280;9539;59.332;18.034;2023-02-23T03:30:27;101118.06;;;8.16;85.18
18821;BME280;9539;59.332;18.034;2023-02-23T03:33:15;101116.16;;;7.58;91.99
18821;BME280;9539;59.332;18.034;2023-02-23T03:35:59;101112.50;;;7.62;90.84
18821;BME280;9539;59.332;18.034;2023-02-23T03:38:44;101102.78;;;8.03;88.23
18821;BME280;9539;59.332;18.034;2023-02-23T03:41:28;101104.19;;;7.30;96.09
18821;BME280;9539;59.332;18.034;2023-02-23T03:44:14;101109.03;;;8.01;91.62
18821;BME280;9539;59.332;18.034;2023-02-23T03:46:57;101111.72;;;6.97;99.22
18821;BME280;9539;59.332;18.034;2023-02-23T03:49:39;101100.69;;;7.29;99.22
18821;BME280;9539;59.332;18.034;2023-02-23T03:52:24;101100.34;;;7.38;98.30
18821;BME280;9539;59.332;18.034;2023-02-23T03:55:11;101094.38;;;7.53;96.87
18821;BME280;9539;59.332;18.034;2023-02-23T03:57:55;101079.41;;;7.74;92.36
18821;BME280;9539;59.332;18.034;2023-02-23T04:00:40;101085.78;;;7.28;98.28
18821;BME280;9539;59.332;18.034;2023-02-23T04:03:22;101089.88;;;7.35;97.40
18821;BME280;9539;59.332;18.034;2023-02-23T04:06:07;101090.63;;;7.39;98.59
18821;BME280;9539;59.332;18.034;2023-02-23T04:08:50;101085.75;;;7.50;97.48
18821;BME280;9539;59.332;18.034;2023-02-23T04:11:34;101075.53;;;7.20;98.46
18821;BME280;9539;59.332;18.034;2023-02-23T04:14:24;101069.28;;;7.23;100.00
18821;BME280;9539;59.332;18.034;2023-02-23T04:16:47;101075.53;;;7.20;100.00
18821;BME280;9539;59.332;18.034;2023-02-23T04:19:08;101070.94;;;7.26;97.32
18821;BME280;9539;59.332;18.034;2023-02-23T04:21:30;101072.06;;;7.40;98.68
18821;BME280;9539;59.332;18.034;2023-02-23T04:23:52;101068.38;;;7.02;100.00
18821;BME280;9539;59.332;18.034;2023-02-23T04:26:14;101064.00;;;7.23;99.30
18821;BME280;9539;59.332;18.034;2023-02-23T04:28:36;101049.97;;;7.43;99.90
18821;BME280;9539;59.332;18.034;2023-02-23T04:30:59;101050.38;;;7.93;93.65
18821;BME280;9539;59.332;18.034;2023-02-23T04:33:21;101051.19;;;7.95;94.75
18821;BME280;9539;59.332;18.034;2023-02-23T04:35:45;101043.00;;;7.20;99.03
18821;BME280;9539;59.332;18.034;2023-02-23T04:38:07;101050.88;;;7.82;96.22
18821;BME280;9539;59.332;18.034;2023-02-23T04:40:29;101056.81;;;7.27;99.81
18821;BME280;9539;59.332;18.034;2023-02-23T04:42:52;101045.72;;;7.59;98.16
18821;BME280;9539;59.332;18.034;2023-02-23T04:45:14;101039.06;;;7.30;100.00
18821;BME280;9539;59.332;18.034;2023-02-23T04:47:38;101045.72;;;7.59;99.35
18821;BME280;9539;59.332;18.034;2023-02-23T04:50:00;101034.13;;;7.43;100.00
18821;BME280;9539;59.332;18.034;2023-02-23T04:52:22;101029.94;;;7.78;96.47
18821;BME280;9539;59.332;18.034;2023-02-23T04:54:44;101031.66;;;6.76;100.00
18821;BME280;9539;59.332;18.034;2023-02-23T04:57:06;101020.25;;;6.97;100.00
18821;BME280;9539;59.332;18.034;2023-02-23T04:59:28;101014.66;;;7.05;100.00
18821;BME280;9539;59.332;18.034;2023-02-23T05:01:50;101012.19;;;7.20;100.00
18821;BME280;9539;59.332;18.034;2023-02-23T05:04:14;101003.75;;;7.53;97.46
18821;BME280;9539;59.332;18.034;2023-02-23T05:06:36;101007.00;;;7.78;97.61
18821;BME280;9539;59.332;18.034;2023-02-23T05:08:58;101002.06;;;7.32;98.40
18821;BME280;9539;59.332;18.034;2023-02-23T05:11:20;101015.50;;;7.05;100.00
18821;BME280;9539;59.332;18.034;2023-02-23T05:13:43;101006.63;;;7.67;98.49
18821;BME280;9539;59.332;18.034;2023-02-23T05:16:06;101006.47;;;7.51;97.76
18821;BME280;9539;59.332;18.034;2023-02-23T05:18:28;100993.06;;;7.56;100.00
18821;BME280;9539;59.332;18.034;2023-02-23T05:20:52;100990.47;;;7.93;97.51
18821;BME280;9539;59.332;18.034;2023-02-23T05:23:14;100998.16;;;8.17;96.06
18821;BME280;9539;59.332;18.034;2023-02-23T05:25:37;100985.72;;;7.62;100.00
18821;BME280;9539;59.332;18.034;2023-02-23T05:27:59;100989.34;;;8.55;92.69
18821;BME280;9539;59.332;18.034;2023-02-23T05:30:21;100996.34;;;8.37;93.48
18821;BME280;9539;59.332;18.034;2023-02-23T05:32:43;100994.00;;;7.35;100.00
18821;BME280;9539;59.332;18.034;2023-02-23T05:35:05;100986.66;;;7.61;100.00
18821;BME280;9539;59.332;18.034;2023-02-23T05:37:29;100975.50;;;7.14;100.00
18821;BME280;9539;59.332;18.034;2023-02-23T05:39:51;100980.59;;;6.57;100.00
18821;BME280;9539;59.332;18.034;2023-02-23T05:42:13;100971.41;;;7.07;100.00
18821;BME280;9539;59.332;18.034;2023-02-23T05:44:35;100965.16;;;7.30;100.00
18821;BME280;9539;59.332;18.034;2023-02-23T05:46:57;100961.34;;;7.17;100.00
18821;BME280;9539;59.332;18.034;2023-02-23T05:49:20;100955.22;;;7.55;100.00
18821;BME280;9539;59.332;18.034;2023-02-23T05:51:42;100953.09;;;7.45;100.00
18821;BME280;9539;59.332;18.034;2023-02-23T05:54:06;100951.47;;;7.41;100.00
18821;BME280;9539;59.332;18.034;2023-02-23T05:56:28;100937.34;;;7.99;99.00
18821;BME280;9539;59.332;18.034;2023-02-23T05:58:52;100942.25;;;8.26;95.52
18821;BME280;9539;59.332;18.034;2023-02-23T06:01:14;100939.75;;;7.67;97.37
18821;BME280;9539;59.332;18.034;2023-02-23T06:03:37;100932.22;;;7.78;100.00
18821;BME280;9539;59.332;18.034;2023-02-23T06:05:59;100929.78;;;7.34;100.00
18821;BME280;9539;59.332;18.034;2023-02-23T06:08:20;100918.78;;;6.64;100.00
18821;BME280;9539;59.332;18.034;2023-02-23T06:10:44;100920.94;;;7.35;100.00
18821;BME280;9539;59.332;18.034;2023-02-23T06:13:06;100916.88;;;7.47;100.00
18821;BME280;9539;59.332;18.034;2023-02-23T06:15:29;100913.22;;;7.88;100.00
18821;BME280;9539;59.332;18.034;2023-02-23T06:17:51;100920.75;;;7.58;100.00
18821;BME280;9539;59.332;18.034;2023-02-23T06:20:13;100908.41;;;7.59;100.00
18821;BME280;9539;59.332;18.034;2023-02-23T06:22:35;100906.44;;;7.83;100.00
18821;BME280;9539;59.332;18.034;2023-02-23T06:24:57;100905.94;;;6.97;100.00
18821;BME280;9539;59.332;18.034;2023-02-23T06:27:20;100906.03;;;7.53;100.00
18821;BME280;9539;59.332;18.034;2023-02-23T06:29:42;100898.06;;;6.75;100.00
18821;BME280;9539;59.332;18.034;2023-02-23T06:32:05;100912.44;;;5.81;100.00
18821;BME280;9539;59.332;18.034;2023-02-23T06:34:27;100892.16;;;6.70;100.00
18821;BME280;9539;59.332;18.034;2023-02-23T06:36:49;100892.19;;;7.48;100.00
18821;BME280;9539;59.332;18.034;2023-02-23T06:39:11;100887.84;;;7.84;100.00
18821;BME280;9539;59.332;18.034;2023-02-23T06:41:33;100887.88;;;8.39;98.62
18821;BME280;9539;59.332;18.034;2023-02-23T06:43:56;100889.84;;;7.79;100.00
18821;BME280;9539;59.332;18.034;2023-02-23T06:46:18;100883.25;;;7.13;100.00
18821;BME280;9539;59.332;18.034;2023-02-23T06:48:40;100886.06;;;7.47;100.00
18821;BME280;9539;59.332;18.034;2023-02-23T06:51:03;100891.88;;;7.16;100.00
18821;BME280;9539;59.332;18.034;2023-02-23T06:53:25;100880.66;;;7.11;100.00
18821;BME280;9539;59.332;18.034;2023-02-23T06:55:47;100876.59;;;7.43;100.00
18821;BME280;9539;59.332;18.034;2023-02-23T06:58:09;100871.97;;;6.89;100.00
18821;BME280;9539;59.332;18.034;2023-02-23T07:00:32;100865.75;;;6.50;100.00
18821;BME280;9539;59.332;18.034;2023-02-23T07:02:56;100868.19;;;6.95;100.00
18821;BME280;9539;59.332;18.034;2023-02-23T07:05:19;100864.31;;;7.61;100.00
18821;BME280;9539;59.332;18.034;2023-02-23T07:07:41;100858.16;;;7.79;100.00
18821;BME280;9539;59.332;18.034;2023-02-23T07:10:04;100856.66;;;7.55;100.00
18821;BME280;9539;59.332;18.034;2023-02-23T07:12:26;100850.16;;;8.35;100.00
18821;BME280;9539;59.332;18.034;2023-02-23T07:14:48;100852.81;;;7.25;100.00
18821;BME280;9539;59.332;18.034;2023-02-23T07:17:12;100843.53;;;7.72;100.00
18821;BME280;9539;59.332;18.034;2023-02-23T07:19:34;100849.06;;;7.85;100.00
18821;BME280;9539;59.332;18.034;2023-02-23T07:21:56;100836.88;;;8.18;100.00
18821;BME280;9539;59.332;18.034;2023-02-23T07:24:18;100835.00;;;7.84;100.00
18821;BME280;9539;59.332;18.034;2023-02-23T07:26:41;100848.13;;;6.72;100.00
18821;BME280;9539;59.332;18.034;2023-02-23T07:29:06;100839.50;;;7.07;100.00
18821;BME280;9539;59.332;18.034;2023-02-23T07:31:28;100834.47;;;7.21;100.00
18821;BME280;9539;59.332;18.034;2023-02-23T07:33:52;100823.53;;;7.67;100.00
18821;BME280;9539;59.332;18.034;2023-02-23T07:36:14;100832.75;;;6.41;100.00
18821;BME280;9539;59.332;18.034;2023-02-23T07:38:36;100826.53;;;6.82;100.00
18821;BME280;9539;59.332;18.034;2023-02-23T07:40:58;100828.53;;;7.16;100.00
18821;BME280;9539;59.332;18.034;2023-02-23T07:43:20;100826.53;;;7.59;100.00
18821;BME280;9539;59.332;18.034;2023-02-23T07:45:43;100823.94;;;8.31;100.00
18821;BME280;9539;59.332;18.034;2023-02-23T07:48:05;100823.38;;;7.88;100.00
18821;BME280;9539;59.332;18.034;2023-02-23T07:50:29;100806.72;;;7.69;100.00
18821;BME280;9539;59.332;18.034;2023-02-23T07:52:51;100819.44;;;7.78;100.00
18821;BME280;9539;59.332;18.034;2023-02-23T07:55:13;100809.13;;;8.78;100.00
18821;BME280;9539;59.332;18.034;2023-02-23T07:57:35;100820.25;;;7.80;100.00
18821;BME280;9539;59.332;18.034;2023-02-23T07:59:57;100813.22;;;8.68;100.00
18821;BME280;9539;59.332;18.034;2023-02-23T08:02:19;100808.22;;;8.79;100.00
18821;BME280;9539;59.332;18.034;2023-02-23T08:04:41;100805.41;;;7.59;100.00
18821;BME280;9539;59.332;18.034;2023-02-23T08:07:05;100803.56;;;8.67;100.00
18821;BME280;9539;59.332;18.034;2023-02-23T08:09:28;100805.47;;;8.12;100.00
18821;BME280;9539;59.332;18.034;2023-02-23T08:11:52;100800.66;;;7.84;100.00
18821;BME280;9539;59.332;18.034;2023-02-23T08:14:14;100792.66;;;8.22;100.00
18821;BME280;9539;59.332;18.034;2023-02-23T08:16:36;100789.81;;;8.94;100.00
18821;BME280;9539;59.332;18.034;2023-02-23T08:18:59;100791.47;;;8.79;100.00
18821;BME280;9539;59.332;18.034;2023-02-23T08:21:21;100786.25;;;8.77;100.00
18821;BME280;9539;59.332;18.034;2023-02-23T08:23:44;100785.44;;;9.26;97.38
18821;BME280;9539;59.332;18.034;2023-02-23T08:26:06;100777.78;;;9.04;99.78
18821;BME280;9539;59.332;18.034;2023-02-23T08:28:29;100779.22;;;8.94;100.00
18821;BME280;9539;59.332;18.034;2023-02-23T08:30:51;100774.41;;;9.17;99.43
18821;BME280;9539;59.332;18.034;2023-02-23T08:33:14;100766.13;;;9.23;97.50
18821;BME280;9539;59.332;18.034;2023-02-23T08:35:36;100759.28;;;9.19;99.98
18821;BME280;9539;59.332;18.034;2023-02-23T08:37:58;100761.63;;;8.60;100.00
18821;BME280;9539;59.332;18.034;2023-02-23T08:40:21;100759.84;;;8.26;100.00
18821;BME280;9539;59.332;18.034;2023-02-23T08:42:43;100758.88;;;8.78;100.00
18821;BME280;9539;59.332;18.034;2023-02-23T08:45:06;100751.84;;;9.42;99.89
18821;BME280;9539;59.332;18.034;2023-02-23T08:47:28;100755.50;;;9.08;100.00
18821;BME280;9539;59.332;18.034;2023-02-23T08:49:52;100753.94;;;8.88;100.00
18821;BME280;9539;59.332;18.034;2023-02-23T08:52:15;100744.31;;;8.87;100.00
18821;BME280;9539;59.332;18.034;2023-02-23T08:54:37;100741.63;;;9.20;100.00
18821;BME280;9539;59.332;18.034;2023-02-23T08:57:00;100743.81;;;7.94;100.00
18821;BME280;9539;59.332;18.034;2023-02-23T08:59:22;100736.91;;;9.25;100.00
18821;BME280;9539;59.332;18.034;2023-02-23T09:01:45;100742.97;;;9.11;99.94
18821;BME280;9539;59.332;18.034;2023-02-23T09:04:07;100728.84;;;9.74;97.59
18821;BME280;9539;59.332;18.034;2023-02-23T09:06:29;100729.59;;;8.81;100.00
18821;BME280;9539;59.332;18.034;2023-02-23T09:08:52;100729.38;;;8.86;100.00
18821;BME280;9539;59.332;18.034;2023-02-23T09:11:15;100710.44;;;8.94;100.00
18821;BME280;9539;59.332;18.034;2023-02-23T09:13:39;100728.59;;;9.78;98.86
18821;BME280;9539;59.332;18.034;2023-02-23T09:16:01;100719.22;;;9.57;97.03
18821;BME280;9539;59.332;18.034;2023-02-23T09:18:24;100717.91;;;9.01;100.00
18821;BME280;9539;59.332;18.034;2023-02-23T09:20:47;100708.81;;;8.58;100.00
18821;BME280;9539;59.332;18.034;2023-02-23T09:23:09;100710.34;;;9.11;100.00
18821;BME280;9539;59.332;18.034;2023-02-23T09:25:31;100705.66;;;9.00;100.00
18821;BME280;9539;59.332;18.034;2023-02-23T09:27:55;100705.22;;;9.08;100.00
18821;BME280;9539;59.332;18.034;2023-02-23T09:30:19;100700.00;;;9.22;100.00
18821;BME280;9539;59.332;18.034;2023-02-23T09:32:43;100694.69;;;8.25;100.00
18821;BME280;9539;59.332;18.034;2023-02-23T09:35:06;100695.50;;;9.40;100.00
18821;BME280;9539;59.332;18.034;2023-02-23T09:37:28;100684.47;;;9.32;100.00
18821;BME280;9539;59.332;18.034;2023-02-23T09:39:50;100694.91;;;9.19;100.00
18821;BME280;9539;59.332;18.034;2023-02-23T09:42:22;100687.69;;;9.52;100.00
18821;BME280;9539;59.332;18.034;2023-02-23T09:45:06;100678.00;;;9.97;97.13
18821;BME280;9539;59.332;18.034;2023-02-23T09:47:43;100668.16;;;9.39;100.00
18821;BME280;9539;59.332;18.034;2023-02-23T09:50:14;100682.50;;;9.04;100.00
18821;BME280;9539;59.332;18.034;2023-02-23T09:52:40;100674.63;;;9.49;100.00
18821;BME280;9539;59.332;18.034;2023-02-23T09:55:05;100677.31;;;8.87;100.00
18821;BME280;9539;59.332;18.034;2023-02-23T09:57:35;100675.56;;;9.48;100.00
18821;BME280;9539;59.332;18.034;2023-02-23T09:59:57;100672.25;;;9.75;99.59
18821;BME280;9539;59.332;18.034;2023-02-23T10:02:24;100668.00;;;9.72;99.34
18821;BME280;9539;59.332;18.034;2023-02-23T10:04:53;100669.56;;;10.20;91.75
18821;BME280;9539;59.332;18.034;2023-02-23T10:07:24;100662.47;;;10.05;97.06
18821;BME280;9539;59.332;18.034;2023-02-23T10:09:58;100664.16;;;10.22;93.47
18821;BME280;9539;59.332;18.034;2023-02-23T10:12:29;100657.25;;;9.89;97.18
18821;BME280;9539;59.332;18.034;2023-02-23T10:15:02;100650.44;;;9.55;94.32
18821;BME280;9539;59.332;18.034;2023-02-23T10:17:34;100650.91;;;10.22;90.69
18821;BME280;9539;59.332;18.034;2023-02-23T10:20:08;100658.94;;;9.60;98.47
18821;BME280;9539;59.332;18.034;2023-02-23T10:22:34;100650.88;;;9.78;97.68
18821;BME280;9539;59.332;18.034;2023-02-23T10:25:01;100639.06;;;9.53;97.21
18821;BME280;9539;59.332;18.034;2023-02-23T10:27:31;100629.72;;;9.16;100.00
18821;BME280;9539;59.332;18.034;2023-02-23T10:29:59;100638.53;;;9.33;100.00
18821;BME280;9539;59.332;18.034;2023-02-23T10:32:31;100632.22;;;9.65;97.54
18821;BME280;9539;59.332;18.034;2023-02-23T10:34:57;100624.34;;;10.08;97.11
18821;BME280;9539;59.332;18.034;2023-02-23T10:37:22;100625.31;;;9.47;95.98
18821;BME280;9539;59.332;18.034;2023-02-23T10:39:45;100616.84;;;9.26;98.46
18821;BME280;9539;59.332;18.034;2023-02-23T10:42:13;100614.38;;;9.07;100.00
18821;BME280;9539;59.332;18.034;2023-02-23T10:44:36;100610.22;;;8.88;100.00
18821;BME280;9539;59.332;18.034;2023-02-23T10:47:00;100605.19;;;9.88;96.45
18821;BME280;9539;59.332;18.034;2023-02-23T10:49:26;100605.47;;;9.40;99.22
18821;BME280;9539;59.332;18.034;2023-02-23T10:51:50;100598.66;;;8.89;100.00
18821;BME280;9539;59.332;18.034;2023-02-23T10:54:41;100590.06;;;9.60;98.93
18821;BME280;9539;59.332;18.034;2023-02-23T10:57:06;100589.88;;;10.08;93.94
18821;BME280;9539;59.332;18.034;2023-02-23T10:59:28;100588.78;;;9.68;96.78
18821;BME280;9539;59.332;18.034;2023-02-23T11:01:50;100588.28;;;10.19;95.51
18821;BME280;9539;59.332;18.034;2023-02-23T11:04:17;100592.59;;;9.92;95.47
18821;BME280;9539;59.332;18.034;2023-02-23T11:06:41;100583.22;;;9.86;94.93
18821;BME280;9539;59.332;18.034;2023-02-23T11:09:21;100573.88;;;10.37;91.30
18821;BME280;9539;59.332;18.034;2023-02-23T11:11:55;100575.38;;;10.13;93.55
18821;BME280;9539;59.332;18.034;2023-02-23T11:14:23;100583.44;;;9.97;95.26
18821;BME280;9539;59.332;18.034;2023-02-23T11:16:47;100567.47;;;10.27;91.53
18821;BME280;9539;59.332;18.034;2023-02-23T11:19:20;100567.41;;;9.41;94.46
18821;BME280;9539;59.332;18.034;2023-02-23T11:21:49;100566.47;;;8.96;99.30
18821;BME280;9539;59.332;18.034;2023-02-23T11:24:17;100567.75;;;9.50;99.11
18821;BME280;9539;59.332;18.034;2023-02-23T11:26:42;100562.03;;;10.00;97.02
18821;BME280;9539;59.332;18.034;2023-02-23T11:29:13;100550.19;;;9.78;98.95
18821;BME280;9539;59.332;18.034;2023-02-23T11:31:37;100548.38;;;9.20;100.00
18821;BME280;9539;59.332;18.034;2023-02-23T11:34:01;100544.78;;;9.93;95.99
18821;BME280;9539;59.332;18.034;2023-02-23T11:36:27;100537.75;;;10.22;93.49
18821;BME280;9539;59.332;18.034;2023-02-23T11:39:00;100538.47;;;9.96;93.70
18821;BME280;9539;59.332;18.034;2023-02-23T11:41:23;100527.19;;;9.92;95.57
18821;BME280;9539;59.332;18.034;2023-02-23T11:43:47;100534.56;;;9.87;97.09
18821;BME280;9539;59.332;18.034;2023-02-23T11:46:10;100534.66;;;9.86;97.49
18821;BME280;9539;59.332;18.034;2023-02-23T11:48:40;100524.22;;;9.10;100.00
18821;BME280;9539;59.332;18.034;2023-02-23T11:51:04;100517.16;;;9.83;96.94
18821;BME280;9539;59.332;18.034;2023-02-23T11:53:29;100523.50;;;10.09;96.64
18821;BME280;9539;59.332;18.034;2023-02-23T11:55:53;100510.91;;;10.13;94.38
18821;BME280;9539;59.332;18.034;2023-02-23T11:58:22;100510.34;;;10.36;91.99
18821;BME280;9539;59.332;18.034;2023-02-23T12:00:54;100507.41;;;9.70;100.00
18821;BME280;9539;59.332;18.034;2023-02-23T12:03:21;100498.72;;;9.96;92.34
18821;BME280;9539;59.332;18.034;2023-02-23T12:05:49;100491.72;;;10.23;93.97
18821;BME280;9539;59.332;18.034;2023-02-23T12:08:15;100497.22;;;10.61;91.38
18821;BME280;9539;59.332;18.034;2023-02-23T12:10:41;100486.50;;;10.22;91.79
18821;BME280;9539;59.332;18.034;2023-02-23T12:13:11;100488.44;;;9.03;99.86
18821;BME280;9539;59.332;18.034;2023-02-23T12:15:42;100489.13;;;9.79;94.67
18821;BME280;9539;59.332;18.034;2023-02-23T12:18:13;100488.56;;;9.60;98.73
18821;BME280;9539;59.332;18.034;2023-02-23T12:20:41;100481.22;;;10.63;92.09
18821;BME280;9539;59.332;18.034;2023-02-23T12:23:07;100478.28;;;9.84;94.75
18821;BME280;9539;59.332;18.034;2023-02-23T12:25:34;100480.25;;;9.94;94.71
18821;BME280;9539;59.332;18.034;2023-02-23T12:28:05;100472.38;;;10.07;89.90
18821;BME280;9539;59.332;18.034;2023-02-23T12:30:38;100460.94;;;10.21;96.24
18821;BME280;9539;59.332;18.034;2023-02-23T12:33:05;100459.31;;;10.18;93.37
18821;BME280;9539;59.332;18.034;2023-02-23T12:35:38;100462.69;;;10.49;92.66
18821;BME280;9539;59.332;18.034;2023-02-23T12:38:12;100452.50;;;9.86;94.84
18821;BME280;9539;59.332;18.034;2023-02-23T12:40:38;100459.66;;;10.40;91.40
18821;BME280;9539;59.332;18.034;2023-02-23T12:43:06;100457.78;;;10.14;95.39
18821;BME280;9539;59.332;18.034;2023-02-23T12:45:36;100449.53;;;10.33;91.41
18821;BME280;9539;59.332;18.034;2023-02-23T12:48:11;100460.28;;;10.17;92.64
18821;BME280;9539;59.332;18.034;2023-02-23T12:50:38;100453.06;;;10.05;95.13
18821;BME280;9539;59.332;18.034;2023-02-23T12:53:11;100448.38;;;9.39;98.53
18821;BME280;9539;59.332;18.034;2023-02-23T12:55:40;100445.22;;;9.61;99.11
18821;BME280;9539;59.332;18.034;2023-02-23T12:58:15;100430.00;;;9.50;99.30